Babson Park, Massachusetts
Current Conditions -  °F | °C
As of 4:53 PM on Friday 31 Oct 2014 (Local Time) from KOWD Reporting Station
Overcast Overcast  
Wind Chill: 10°   Ceiling: 6000
Heat Index: 10°   Visibility: 10mi
Dew Point:   Wind: 8mph
Humidity: 61%   Direction: 70°ENE
Pressure: 29.97"   Gusts: NA
Location:  42.3°N, 71.26°W
Report Text: KOWD 312053Z 07007KT 10SM SCT048 OVC060 10/03 A2997 RMK AO2 SLP149 T01000028 56003
Loading
Personal Weather Stations






























Interactive Weather Map
Tropical Storm Tracking
New forecast layout! Learn more

10-Day Weather Forecast

Advertisements
Track Severe Weather on mobile